createdAt,value
2023-05-18T00:02:16.129Z,4.22
2023-05-18T00:04:49.112Z,3.63
2023-05-18T00:07:22.570Z,4.65
2023-05-18T00:09:55.487Z,4.55
2023-05-18T00:12:28.444Z,4.38
2023-05-18T00:15:02.739Z,4.28
2023-05-18T00:17:35.759Z,4.95
2023-05-18T00:20:09.775Z,3.97
2023-05-18T00:22:42.996Z,3.90
2023-05-18T00:25:15.908Z,4.75
2023-05-18T00:27:50.042Z,3.92
2023-05-18T00:30:26.255Z,3.53
2023-05-18T00:32:59.457Z,3.47
2023-05-18T00:35:32.527Z,2.80
2023-05-18T00:38:05.649Z,3.20
2023-05-18T00:40:38.607Z,3.30
2023-05-18T00:43:11.806Z,3.10
2023-05-18T00:45:46.139Z,3.92
2023-05-18T00:48:19.308Z,3.50
2023-05-18T00:50:52.157Z,3.22
2023-05-18T00:53:25.011Z,3.28
2023-05-18T00:55:58.118Z,3.50
2023-05-18T00:58:31.326Z,3.80
2023-05-18T01:01:06.276Z,3.00
2023-05-18T01:03:39.853Z,3.42
2023-05-18T01:06:13.010Z,3.00
2023-05-18T01:08:46.066Z,2.92
2023-05-18T01:11:28.155Z,3.67
2023-05-18T01:14:07.775Z,2.70
2023-05-18T01:16:46.421Z,3.77
2023-05-18T01:19:51.434Z,3.85
2023-05-18T01:22:38.743Z,3.78
2023-05-18T01:25:19.621Z,3.45
2023-05-18T01:27:56.221Z,3.30
2023-05-18T01:30:29.328Z,2.80
2023-05-18T01:33:02.324Z,3.10
2023-05-18T01:35:35.570Z,3.28
2023-05-18T01:38:08.987Z,3.20
2023-05-18T01:40:49.296Z,2.90
2023-05-18T01:43:29.565Z,3.33
2023-05-18T01:48:42.877Z,3.70
2023-05-18T01:51:21.323Z,3.17
2023-05-18T01:54:01.811Z,3.13
2023-05-18T01:56:36.995Z,2.90
2023-05-18T01:59:12.064Z,2.90
2023-05-18T02:01:45.926Z,2.88
2023-05-18T02:04:18.902Z,3.80
2023-05-18T02:06:54.275Z,3.03
2023-05-18T02:09:27.758Z,3.67
2023-05-18T02:12:00.894Z,3.30
2023-05-18T02:14:35.549Z,4.13
2023-05-18T02:17:08.558Z,3.13
2023-05-18T02:19:41.459Z,3.40
2023-05-18T02:22:14.432Z,3.83
2023-05-18T02:24:47.562Z,4.03
2023-05-18T02:27:20.845Z,3.78
2023-05-18T02:29:56.905Z,3.53
2023-05-18T02:32:32.569Z,3.05
2023-05-18T02:35:06.852Z,3.08
2023-05-18T02:37:42.389Z,3.40
2023-05-18T02:40:16.288Z,3.08
2023-05-18T02:42:49.594Z,3.35
2023-05-18T02:45:24.180Z,3.47
2023-05-18T02:47:57.236Z,3.22
2023-05-18T02:50:30.472Z,3.33
2023-05-18T02:53:03.675Z,3.20
2023-05-18T02:55:37.715Z,3.15
2023-05-18T02:58:20.470Z,4.38
2023-05-18T03:01:21.488Z,3.88
2023-05-18T03:03:58.466Z,3.20
2023-05-18T03:06:32.531Z,3.70
2023-05-18T03:09:05.747Z,3.17
2023-05-18T03:11:44.510Z,3.13
2023-05-18T03:14:17.574Z,3.63
2023-05-18T03:16:54.405Z,3.30
2023-05-18T03:19:29.545Z,3.35
2023-05-18T03:22:03.874Z,3.08
2023-05-18T03:24:40.346Z,3.22
2023-05-18T03:27:18.523Z,3.25
2023-05-18T03:29:53.201Z,3.47
2023-05-18T03:32:28.469Z,3.45
2023-05-18T03:35:02.160Z,3.78
2023-05-18T03:37:35.814Z,3.38
2023-05-18T03:40:15.784Z,3.45
2023-05-18T03:42:50.578Z,3.38
2023-05-18T03:45:23.649Z,3.63
2023-05-18T03:47:58.430Z,3.38
2023-05-18T03:50:31.740Z,3.50
2023-05-18T03:53:06.534Z,3.40
2023-05-18T03:55:39.699Z,3.28
2023-05-18T03:58:12.844Z,3.47
2023-05-18T04:00:46.006Z,3.45
2023-05-18T04:03:21.768Z,3.38
2023-05-18T04:05:55.963Z,2.78
2023-05-18T04:08:30.353Z,3.97
2023-05-18T04:11:05.138Z,3.72
2023-05-18T04:13:39.596Z,2.80
2023-05-18T04:16:13.770Z,3.40
2023-05-18T04:18:48.489Z,3.55
2023-05-18T04:21:21.643Z,3.70
2023-05-18T04:23:54.886Z,2.97
2023-05-18T04:26:28.049Z,3.40
2023-05-18T04:29:01.872Z,3.10
2023-05-18T04:31:35.750Z,3.50
2023-05-18T04:34:10.185Z,3.33
2023-05-18T04:36:44.412Z,3.45
2023-05-18T04:39:18.557Z,3.75
2023-05-18T04:41:58.072Z,2.72
2023-05-18T04:44:34.228Z,3.33
2023-05-18T04:47:08.478Z,3.70
2023-05-18T04:49:43.791Z,3.20
2023-05-18T04:52:17.088Z,3.40
2023-05-18T04:54:50.137Z,3.08
2023-05-18T04:57:23.572Z,3.72
2023-05-18T04:59:58.425Z,3.40
2023-05-18T05:02:31.657Z,3.63
2023-05-18T05:05:06.978Z,3.80
2023-05-18T05:07:41.138Z,3.50
2023-05-18T05:10:15.904Z,3.60
2023-05-18T05:12:51.492Z,3.78
2023-05-18T05:15:25.483Z,3.15
2023-05-18T05:17:59.995Z,3.80
2023-05-18T05:20:34.692Z,3.60
2023-05-18T05:23:08.714Z,3.70
2023-05-18T05:25:45.073Z,3.67
2023-05-18T05:28:18.197Z,3.00
2023-05-18T05:30:51.376Z,2.75
2023-05-18T05:33:24.363Z,3.22
2023-05-18T05:35:58.727Z,2.90
2023-05-18T05:38:32.018Z,2.85
2023-05-18T05:41:05.121Z,3.15
2023-05-18T05:43:38.073Z,3.08
2023-05-18T05:46:12.246Z,3.10
2023-05-18T05:48:45.555Z,2.58
2023-05-18T05:51:19.830Z,3.05
2023-05-18T05:53:53.425Z,2.50
2023-05-18T05:56:27.395Z,2.85
2023-05-18T05:59:01.026Z,2.92
2023-05-18T06:01:34.896Z,3.15
2023-05-18T06:04:10.856Z,3.13
2023-05-18T06:06:45.557Z,3.08
2023-05-18T06:09:18.769Z,3.05
2023-05-18T06:11:52.956Z,3.00
2023-05-18T06:14:26.275Z,2.58
2023-05-18T06:17:00.061Z,2.80
2023-05-18T06:19:33.400Z,2.25
2023-05-18T06:22:08.003Z,2.50
2023-05-18T06:24:49.884Z,3.40
2023-05-18T06:27:52.441Z,3.08
2023-05-18T06:30:41.565Z,2.53
2023-05-18T06:33:41.109Z,2.10
2023-05-18T06:36:14.204Z,2.22
2023-05-18T06:38:48.491Z,10.02
2023-05-18T06:41:22.481Z,7.15
2023-05-18T06:43:56.242Z,2.30
2023-05-18T06:46:30.078Z,3.40
2023-05-18T06:49:08.551Z,3.22
2023-05-18T06:51:41.813Z,2.03
2023-05-18T06:54:17.549Z,2.80
2023-05-18T06:56:50.821Z,2.00
2023-05-18T06:59:23.742Z,2.47
2023-05-18T07:01:56.776Z,2.50
2023-05-18T07:04:31.025Z,2.50
2023-05-18T07:07:04.284Z,2.25
2023-05-18T07:09:38.611Z,4.13
2023-05-18T07:12:11.546Z,2.20
2023-05-18T07:14:44.744Z,2.03
2023-05-18T07:17:17.630Z,2.20
2023-05-18T07:19:50.440Z,2.92
2023-05-18T07:22:23.342Z,1.95
2023-05-18T07:24:59.032Z,2.38
2023-05-18T07:27:33.349Z,2.20
2023-05-18T07:30:08.254Z,1.85
2023-05-18T07:32:41.362Z,2.53
2023-05-18T07:35:16.783Z,2.45
2023-05-18T07:37:51.833Z,2.17
2023-05-18T07:40:26.160Z,2.00
2023-05-18T07:42:59.047Z,1.77
2023-05-18T07:45:32.505Z,2.25
2023-05-18T07:48:07.819Z,2.25
2023-05-18T07:50:41.492Z,1.83
2023-05-18T07:53:14.252Z,1.65
2023-05-18T07:55:49.959Z,1.92
2023-05-18T07:58:22.811Z,1.48
2023-05-18T08:00:55.673Z,1.77
2023-05-18T08:03:28.608Z,1.95
2023-05-18T08:06:01.511Z,1.58
2023-05-18T08:08:36.242Z,2.85
2023-05-18T08:11:10.395Z,1.95
2023-05-18T08:13:44.541Z,2.03
2023-05-18T08:16:17.545Z,2.25
2023-05-18T08:18:50.614Z,2.40
2023-05-18T08:21:23.544Z,1.90
2023-05-18T08:23:56.508Z,2.08
2023-05-18T08:26:30.791Z,2.22
2023-05-18T08:29:09.578Z,2.00
2023-05-18T08:31:42.755Z,1.67
2023-05-18T08:34:29.358Z,1.83
2023-05-18T08:37:02.310Z,2.15
2023-05-18T08:39:36.829Z,1.80
2023-05-18T08:42:20.589Z,2.50
2023-05-18T08:45:12.158Z,2.10
2023-05-18T08:47:45.984Z,2.08
2023-05-18T08:50:24.511Z,1.65
2023-05-18T08:53:01.992Z,1.48
2023-05-18T08:55:37.261Z,1.65
2023-05-18T08:58:18.648Z,1.40
2023-05-18T09:00:54.687Z,2.10
2023-05-18T09:03:27.582Z,2.00
2023-05-18T09:06:01.720Z,2.53
2023-05-18T09:08:35.129Z,1.83
2023-05-18T09:11:09.463Z,1.42
2023-05-18T09:13:44.882Z,1.70
2023-05-18T09:16:18.588Z,1.85
2023-05-18T09:18:52.138Z,2.33
2023-05-18T09:21:25.049Z,1.55
2023-05-18T09:23:58.199Z,2.20
2023-05-18T09:26:31.374Z,1.70
2023-05-18T09:29:17.012Z,1.70
2023-05-18T09:31:50.230Z,2.40
2023-05-18T09:34:24.603Z,2.13
2023-05-18T09:36:58.091Z,1.80
2023-05-18T09:39:31.404Z,2.00
2023-05-18T09:42:04.863Z,1.85
2023-05-18T09:44:39.049Z,2.15
2023-05-18T09:47:11.874Z,1.88
2023-05-18T09:49:45.026Z,1.63
2023-05-18T09:52:17.846Z,1.92
2023-05-18T09:54:58.758Z,1.52
2023-05-18T09:57:31.754Z,1.98
2023-05-18T10:00:11.010Z,1.67
2023-05-18T10:02:48.960Z,1.88
2023-05-18T10:05:23.788Z,1.83
2023-05-18T10:07:59.269Z,1.73
2023-05-18T10:10:32.499Z,1.70
2023-05-18T10:13:06.112Z,1.77
2023-05-18T10:15:48.417Z,1.80
2023-05-18T10:18:24.164Z,2.13
2023-05-18T10:21:00.185Z,1.60
2023-05-18T10:23:34.873Z,2.20
2023-05-18T10:26:09.907Z,1.80
2023-05-18T10:28:44.568Z,1.42
2023-05-18T10:31:21.621Z,1.58
2023-05-18T10:33:54.447Z,1.55
2023-05-18T10:36:30.034Z,1.60
2023-05-18T10:39:04.582Z,1.55
2023-05-18T10:41:39.177Z,1.70
2023-05-18T10:44:12.498Z,1.65
2023-05-18T10:46:47.000Z,1.50
2023-05-18T10:49:25.203Z,1.80
2023-05-18T10:51:59.043Z,1.48
2023-05-18T10:54:32.221Z,1.85
2023-05-18T10:57:05.211Z,2.50
2023-05-18T10:59:42.965Z,1.52
2023-05-18T11:02:19.999Z,1.55
2023-05-18T11:04:54.487Z,1.67
2023-05-18T11:07:30.530Z,1.27
2023-05-18T11:10:04.366Z,1.67
2023-05-18T11:12:39.254Z,1.80
2023-05-18T11:15:12.688Z,1.67
2023-05-18T11:17:47.117Z,1.50
2023-05-18T11:20:20.074Z,1.85
2023-05-18T11:23:02.874Z,1.88
2023-05-18T11:25:44.863Z,1.60
2023-05-18T11:28:37.425Z,1.40
2023-05-18T11:31:19.221Z,1.95
2023-05-18T11:33:54.045Z,1.75
2023-05-18T11:36:28.951Z,1.65
2023-05-18T11:39:06.828Z,1.77
2023-05-18T11:41:42.674Z,1.65
2023-05-18T11:44:17.737Z,1.42
2023-05-18T11:47:01.105Z,1.95
2023-05-18T11:49:43.771Z,1.65
2023-05-18T11:52:20.889Z,1.88
2023-05-18T11:54:55.570Z,1.63
2023-05-18T11:57:40.759Z,1.60
2023-05-18T12:00:16.076Z,2.08
2023-05-18T12:02:52.641Z,2.13
2023-05-18T12:05:32.113Z,1.67
2023-05-18T12:08:06.105Z,1.80
2023-05-18T12:10:40.018Z,1.70
2023-05-18T12:13:18.764Z,1.63
2023-05-18T12:15:53.173Z,2.00
2023-05-18T12:18:29.944Z,1.88
2023-05-18T12:21:07.112Z,1.55
2023-05-18T12:23:40.235Z,1.50
2023-05-18T12:26:14.414Z,2.00
2023-05-18T12:28:47.766Z,2.03
2023-05-18T12:31:20.932Z,1.58
2023-05-18T12:33:56.752Z,2.38
2023-05-18T12:36:33.766Z,1.75
2023-05-18T12:39:07.031Z,2.28
2023-05-18T12:41:39.860Z,1.80
2023-05-18T12:44:12.829Z,1.73
2023-05-18T12:46:46.056Z,1.90
2023-05-18T12:49:20.228Z,1.35
2023-05-18T12:51:56.914Z,1.70
2023-05-18T12:54:30.705Z,1.75
2023-05-18T12:57:07.743Z,1.65
2023-05-18T12:59:49.485Z,1.55
2023-05-18T13:02:31.552Z,1.60
2023-05-18T13:05:07.567Z,2.42
2023-05-18T13:07:43.532Z,1.92
2023-05-18T13:10:19.582Z,1.70
2023-05-18T13:12:54.178Z,1.60
2023-05-18T13:15:26.972Z,1.65
2023-05-18T13:18:01.400Z,2.00
2023-05-18T13:20:36.703Z,1.70
2023-05-18T13:23:14.161Z,1.80
2023-05-18T13:25:47.295Z,1.50
2023-05-18T13:28:22.792Z,2.10
2023-05-18T13:30:55.850Z,1.83
2023-05-18T13:33:28.602Z,1.70
2023-05-18T13:36:03.174Z,2.00
2023-05-18T13:38:38.007Z,1.67
2023-05-18T13:41:12.362Z,1.52
2023-05-18T13:43:45.375Z,1.83
2023-05-18T13:46:18.890Z,2.47
2023-05-18T13:48:51.877Z,2.17
2023-05-18T13:51:24.761Z,2.42
2023-05-18T13:53:59.204Z,1.65
2023-05-18T13:56:32.190Z,1.77
2023-05-18T13:59:04.980Z,1.55
2023-05-18T14:01:38.049Z,1.70
2023-05-18T14:04:11.232Z,1.83
2023-05-18T14:06:44.026Z,2.30
2023-05-18T14:09:18.308Z,2.03
2023-05-18T14:11:53.659Z,1.98
2023-05-18T14:14:26.792Z,2.10
2023-05-18T14:16:59.865Z,2.00
2023-05-18T14:19:32.974Z,1.90
2023-05-18T14:22:06.260Z,2.20
2023-05-18T14:24:40.476Z,2.35
2023-05-18T14:27:13.330Z,1.80
2023-05-18T14:29:46.261Z,2.08
2023-05-18T14:32:20.774Z,1.70
2023-05-18T14:34:55.820Z,1.85
2023-05-18T14:37:28.973Z,1.60
2023-05-18T14:40:05.969Z,1.30
2023-05-18T14:42:39.032Z,1.83
2023-05-18T14:45:12.269Z,1.80
2023-05-18T14:47:45.162Z,1.88
2023-05-18T14:50:18.227Z,1.88
2023-05-18T14:52:52.173Z,1.55
2023-05-18T14:55:26.467Z,1.80
2023-05-18T14:57:59.254Z,2.20
2023-05-18T15:00:33.719Z,2.38
2023-05-18T15:03:07.053Z,1.52
2023-05-18T15:05:43.603Z,1.48
2023-05-18T15:11:52.165Z,1.90
2023-05-18T15:14:44.037Z,1.50
2023-05-18T15:17:24.193Z,1.60
2023-05-18T15:19:57.092Z,2.58
2023-05-18T15:22:30.148Z,1.73
2023-05-18T15:25:05.370Z,2.70
2023-05-18T15:27:39.945Z,1.80
2023-05-18T15:30:13.895Z,1.88
2023-05-18T15:32:47.265Z,2.13
2023-05-18T15:35:20.510Z,1.98
2023-05-18T15:37:53.408Z,2.30
2023-05-18T15:40:30.192Z,2.08
2023-05-18T15:43:04.883Z,2.15
2023-05-18T15:45:42.021Z,2.10
2023-05-18T15:48:15.298Z,1.80
2023-05-18T15:50:48.210Z,3.08
2023-05-18T15:53:21.115Z,1.55
2023-05-18T15:55:58.778Z,2.50
2023-05-18T15:58:34.343Z,1.77
2023-05-18T16:01:07.503Z,6.63
2023-05-18T16:03:40.647Z,2.58
2023-05-18T16:06:28.515Z,1.90
2023-05-18T16:09:07.261Z,2.10
2023-05-18T16:11:40.260Z,2.17
2023-05-18T16:14:16.095Z,1.40
2023-05-18T16:16:49.144Z,3.47
2023-05-18T16:19:22.578Z,1.80
2023-05-18T16:22:01.850Z,1.90
2023-05-18T16:24:37.437Z,1.50
2023-05-18T16:27:12.694Z,1.75
2023-05-18T16:29:48.740Z,1.75
2023-05-18T16:32:22.285Z,2.08
2023-05-18T16:35:01.228Z,1.83
2023-05-18T16:37:34.411Z,1.85
2023-05-18T16:40:08.860Z,1.90
2023-05-18T16:43:08.460Z,9.68
2023-05-18T16:46:04.676Z,2.08
2023-05-18T16:48:40.118Z,13.88
2023-05-18T16:51:13.012Z,3.45
2023-05-18T16:53:45.911Z,9.50
2023-05-18T16:56:22.174Z,22.45
2023-05-18T16:58:55.039Z,19.73
2023-05-18T17:01:30.812Z,9.23
2023-05-18T17:04:03.896Z,3.28
2023-05-18T17:06:37.790Z,2.00
2023-05-18T17:09:10.654Z,1.70
2023-05-18T17:11:43.533Z,1.75
2023-05-18T17:14:33.680Z,1.40
2023-05-18T17:17:09.655Z,1.55
2023-05-18T17:19:45.990Z,1.38
2023-05-18T17:22:19.511Z,2.00
2023-05-18T17:25:11.513Z,1.50
2023-05-18T17:31:46.224Z,1.52
2023-05-18T17:34:47.510Z,1.42
2023-05-18T17:37:20.415Z,1.35
2023-05-18T17:39:53.364Z,1.55
2023-05-18T17:42:26.279Z,1.88
2023-05-18T17:44:59.544Z,1.92
2023-05-18T17:47:32.417Z,1.45
2023-05-18T17:50:07.939Z,1.50
2023-05-18T17:52:41.180Z,1.45
2023-05-18T17:55:15.128Z,1.58
2023-05-18T17:57:48.103Z,1.30
2023-05-18T18:00:21.880Z,2.13
2023-05-18T18:02:55.352Z,1.45
2023-05-18T18:05:30.520Z,1.50
2023-05-18T18:08:04.627Z,1.50
2023-05-18T18:10:37.658Z,1.85
2023-05-18T18:13:10.750Z,1.60
2023-05-18T18:15:43.801Z,1.70
2023-05-18T18:18:16.925Z,2.00
2023-05-18T18:20:51.767Z,1.75
2023-05-18T18:23:24.660Z,1.35
2023-05-18T18:25:57.507Z,1.73
2023-05-18T18:28:30.522Z,2.78
2023-05-18T18:31:03.547Z,1.38
2023-05-18T18:33:41.652Z,1.48
2023-05-18T18:36:16.040Z,1.50
2023-05-18T18:38:49.112Z,1.42
2023-05-18T18:41:22.295Z,1.70
2023-05-18T18:43:57.097Z,1.45
2023-05-18T18:46:30.141Z,1.30
2023-05-18T18:49:03.020Z,1.55
2023-05-18T18:51:37.148Z,1.75
2023-05-18T18:54:09.982Z,1.45
2023-05-18T18:56:43.965Z,1.77
2023-05-18T18:59:16.885Z,1.50
2023-05-18T19:01:49.773Z,1.60
2023-05-18T19:04:23.166Z,1.42
2023-05-18T19:07:01.899Z,1.63
2023-05-18T19:09:36.201Z,1.20
2023-05-18T19:12:09.964Z,1.60
2023-05-18T19:14:42.971Z,1.85
2023-05-18T19:17:16.243Z,1.58
2023-05-18T19:19:49.425Z,2.30
2023-05-18T19:22:23.739Z,1.40
2023-05-18T19:24:56.559Z,1.48
2023-05-18T19:27:29.631Z,2.13
2023-05-18T19:30:04.253Z,1.90
2023-05-18T19:32:37.147Z,1.45
2023-05-18T19:35:10.003Z,1.42
2023-05-18T19:37:44.628Z,1.58
2023-05-18T19:40:17.715Z,1.50
2023-05-18T19:42:50.715Z,1.65
2023-05-18T19:45:23.613Z,1.50
2023-05-18T19:47:56.429Z,1.50
2023-05-18T19:50:29.493Z,1.60
2023-05-18T19:53:03.802Z,1.50
2023-05-18T19:55:36.781Z,1.65
2023-05-18T19:58:09.764Z,1.42
2023-05-18T20:00:42.660Z,1.73
2023-05-18T20:03:16.532Z,1.33
2023-05-18T20:05:50.057Z,1.63
2023-05-18T20:08:24.250Z,1.25
2023-05-18T20:10:57.076Z,1.50
2023-05-18T20:13:30.484Z,2.55
2023-05-18T20:16:03.929Z,1.30
2023-05-18T20:18:37.708Z,1.52
2023-05-18T20:21:10.842Z,1.38
2023-05-18T20:23:47.349Z,1.67
2023-05-18T20:26:22.769Z,1.33
2023-05-18T20:28:55.782Z,1.48
2023-05-18T20:31:28.727Z,1.40
2023-05-18T20:34:01.557Z,1.60
2023-05-18T20:36:35.811Z,1.65
2023-05-18T20:39:10.188Z,2.35
2023-05-18T20:41:43.103Z,1.48
2023-05-18T20:44:17.800Z,1.77
2023-05-18T20:46:53.097Z,1.63
2023-05-18T20:49:25.924Z,1.27
2023-05-18T20:51:58.859Z,3.00
2023-05-18T20:54:33.130Z,1.55
2023-05-18T20:57:06.251Z,1.45
2023-05-18T20:59:39.072Z,1.55
2023-05-18T21:02:11.884Z,1.73
2023-05-18T21:04:44.849Z,1.38
2023-05-18T21:07:18.060Z,1.60
2023-05-18T21:09:52.541Z,1.88
2023-05-18T21:12:25.510Z,2.53
2023-05-18T21:14:58.355Z,1.42
2023-05-18T21:17:32.197Z,1.60
2023-05-18T21:20:06.045Z,1.60
2023-05-18T21:22:39.163Z,1.50
2023-05-18T21:25:13.497Z,1.42
2023-05-18T21:27:46.427Z,1.55
2023-05-18T21:30:19.735Z,1.73
2023-05-18T21:32:53.056Z,1.67
2023-05-18T21:35:26.165Z,2.45
2023-05-18T21:37:59.021Z,1.25
2023-05-18T21:40:33.390Z,1.30
2023-05-18T21:43:06.433Z,1.67
2023-05-18T21:45:39.411Z,1.65
2023-05-18T21:48:12.391Z,1.60
2023-05-18T21:50:45.218Z,1.52
2023-05-18T21:53:18.320Z,1.50
2023-05-18T21:55:52.742Z,2.63
2023-05-18T21:58:25.597Z,1.40
2023-05-18T22:00:58.544Z,1.67
2023-05-18T22:03:31.365Z,1.60
2023-05-18T22:06:05.012Z,1.40
2023-05-18T22:08:38.502Z,1.42
2023-05-18T22:11:13.008Z,1.65
2023-05-18T22:13:45.821Z,1.58
2023-05-18T22:16:18.685Z,1.85
2023-05-18T22:18:51.627Z,1.60
2023-05-18T22:21:24.652Z,1.77
2023-05-18T22:23:57.535Z,1.63
2023-05-18T22:26:31.803Z,1.52
2023-05-18T22:29:04.932Z,1.67
2023-05-18T22:31:38.045Z,1.52
2023-05-18T22:34:11.075Z,1.80
2023-05-18T22:36:44.207Z,2.10
2023-05-18T22:39:18.167Z,1.80
2023-05-18T22:41:52.886Z,1.65
2023-05-18T22:44:25.662Z,1.50
2023-05-18T22:47:00.413Z,1.40
2023-05-18T22:49:35.906Z,1.80
2023-05-18T22:52:10.312Z,1.50
2023-05-18T22:54:45.907Z,1.67
2023-05-18T22:57:21.195Z,1.70
2023-05-18T22:59:54.069Z,2.35
2023-05-18T23:02:27.298Z,2.17
2023-05-18T23:05:01.236Z,1.75
2023-05-18T23:07:36.356Z,1.67
2023-05-18T23:10:12.160Z,1.67
2023-05-18T23:12:48.356Z,1.50
2023-05-18T23:15:23.314Z,1.67
2023-05-18T23:17:56.863Z,1.75
2023-05-18T23:20:34.614Z,1.55
2023-05-18T23:23:08.859Z,2.00
2023-05-18T23:25:41.688Z,1.65
2023-05-18T23:28:16.630Z,2.10
2023-05-18T23:30:49.565Z,1.55
2023-05-18T23:33:23.244Z,2.08
2023-05-18T23:35:59.792Z,1.73
2023-05-18T23:38:37.736Z,1.95
2023-05-18T23:41:11.428Z,1.90
2023-05-18T23:43:46.389Z,1.65
2023-05-18T23:46:19.842Z,1.80
2023-05-18T23:48:53.377Z,1.50
2023-05-18T23:51:29.850Z,1.80
2023-05-18T23:54:05.286Z,1.75
2023-05-18T23:56:38.782Z,1.90
2023-05-18T23:59:15.767Z,1.90
